createdAt,value
2018-12-11T00:00:45.902Z,1.93
2018-12-11T00:03:14.566Z,1.40
2018-12-11T00:05:43.168Z,1.70
2018-12-11T00:08:11.932Z,1.70
2018-12-11T00:10:40.495Z,1.83
2018-12-11T00:13:09.120Z,2.33
2018-12-11T00:15:37.836Z,1.93
2018-12-11T00:18:06.411Z,2.10
2018-12-11T00:20:35.025Z,2.53
2018-12-11T00:23:03.663Z,1.90
2018-12-11T00:25:32.312Z,2.57
2018-12-11T00:28:00.898Z,2.23
2018-12-11T00:30:29.494Z,2.20
2018-12-11T00:32:58.214Z,1.93
2018-12-11T00:35:26.910Z,2.40
2018-12-11T00:37:56.142Z,2.67
2018-12-11T00:40:24.791Z,2.40
2018-12-11T00:42:53.396Z,2.47
2018-12-11T00:45:22.010Z,2.43
2018-12-11T00:47:50.696Z,3.47
2018-12-11T00:50:19.380Z,2.20
2018-12-11T00:52:48.703Z,2.10
2018-12-11T00:55:17.332Z,3.50
2018-12-11T00:57:45.920Z,1.60
2018-12-11T01:00:14.669Z,1.90
2018-12-11T01:02:43.283Z,2.30
2018-12-11T01:05:12.013Z,1.30
2018-12-11T01:07:40.687Z,1.57
2018-12-11T01:10:10.509Z,1.73
2018-12-11T01:12:39.152Z,1.80
2018-12-11T01:15:08.012Z,1.73
2018-12-11T01:17:36.643Z,1.63
2018-12-11T01:20:05.940Z,1.87
2018-12-11T01:22:34.615Z,1.97
2018-12-11T01:25:03.214Z,1.70
2018-12-11T01:27:31.791Z,2.57
2018-12-11T01:30:00.380Z,2.30
2018-12-11T01:32:28.950Z,2.80
2018-12-11T01:34:57.543Z,2.27
2018-12-11T01:37:26.127Z,1.83
2018-12-11T01:39:54.695Z,2.00
2018-12-11T01:42:23.259Z,2.43
2018-12-11T01:44:53.284Z,2.10
2018-12-11T01:47:21.966Z,1.47
2018-12-11T01:49:50.543Z,1.90
2018-12-11T01:52:20.227Z,1.27
2018-12-11T01:54:48.901Z,1.20
2018-12-11T01:57:17.497Z,1.70
2018-12-11T01:59:46.088Z,1.80
2018-12-11T02:02:14.780Z,1.53
2018-12-11T02:04:43.442Z,2.10
2018-12-11T02:07:12.058Z,2.53
2018-12-11T02:09:40.679Z,1.80
2018-12-11T02:12:09.423Z,2.37
2018-12-11T02:14:38.111Z,1.97
2018-12-11T02:17:06.707Z,2.67
2018-12-11T02:19:35.407Z,2.73
2018-12-11T02:22:04.039Z,1.63
2018-12-11T02:24:32.657Z,1.73
2018-12-11T02:27:01.238Z,2.00
2018-12-11T02:29:30.103Z,2.20
2018-12-11T02:31:58.724Z,1.90
2018-12-11T02:34:27.297Z,1.97
2018-12-11T02:36:55.977Z,2.43
2018-12-11T02:39:24.735Z,2.33
2018-12-11T02:41:53.350Z,1.90
2018-12-11T02:44:21.914Z,2.00
2018-12-11T02:46:51.176Z,1.73
2018-12-11T02:49:20.603Z,1.87
2018-12-11T02:51:49.231Z,1.30
2018-12-11T02:54:17.808Z,1.70
2018-12-11T02:56:46.475Z,1.30
2018-12-11T02:59:15.160Z,1.47
2018-12-11T03:01:43.906Z,1.10
2018-12-11T03:04:12.730Z,1.77
2018-12-11T03:06:41.380Z,1.33
2018-12-11T03:09:10.191Z,2.30
2018-12-11T03:11:38.836Z,1.43
2018-12-11T03:14:07.542Z,1.87
2018-12-11T03:16:36.238Z,1.40
2018-12-11T03:19:04.819Z,1.97
2018-12-11T03:21:33.432Z,2.37
2018-12-11T03:24:02.053Z,1.80
2018-12-11T03:26:30.693Z,2.07
2018-12-11T03:28:59.366Z,1.93
2018-12-11T03:31:27.983Z,1.97
2018-12-11T03:33:56.573Z,1.83
2018-12-11T03:36:25.318Z,2.03
2018-12-11T03:38:53.915Z,1.80
2018-12-11T03:41:22.539Z,1.47
2018-12-11T03:43:51.196Z,1.87
2018-12-11T03:46:19.821Z,1.40
2018-12-11T03:48:48.554Z,2.07
2018-12-11T03:51:18.271Z,2.50
2018-12-11T03:53:46.944Z,1.33
2018-12-11T03:56:15.596Z,1.97
2018-12-11T03:58:44.201Z,1.70
2018-12-11T04:01:12.847Z,1.60
2018-12-11T04:03:41.475Z,2.00
2018-12-11T04:06:10.134Z,1.77
2018-12-11T04:08:38.732Z,1.93
2018-12-11T04:11:07.379Z,2.20
2018-12-11T04:13:36.000Z,1.37
2018-12-11T04:16:04.726Z,1.73
2018-12-11T04:18:33.351Z,2.53
2018-12-11T04:21:02.003Z,2.17
2018-12-11T04:23:30.609Z,1.13
2018-12-11T04:25:59.198Z,1.13
2018-12-11T04:28:27.772Z,1.00
2018-12-11T04:30:56.372Z,0.93
2018-12-11T04:33:24.996Z,1.27
2018-12-11T04:35:53.648Z,1.20
2018-12-11T04:38:22.304Z,1.67
2018-12-11T04:40:50.957Z,1.67
2018-12-11T04:43:19.743Z,1.70
2018-12-11T04:45:48.394Z,1.87
2018-12-11T04:48:17.095Z,1.20
2018-12-11T04:50:47.031Z,1.77
2018-12-11T04:53:15.716Z,1.80
2018-12-11T04:55:44.360Z,1.50
2018-12-11T04:58:12.972Z,1.27
2018-12-11T05:00:41.504Z,1.67
2018-12-11T05:03:11.055Z,2.03
2018-12-11T05:05:39.735Z,1.50
2018-12-11T05:08:14.953Z,1.50
2018-12-11T05:10:44.066Z,2.40
2018-12-11T05:13:17.236Z,1.77
2018-12-11T05:15:45.815Z,1.73
2018-12-11T05:18:14.442Z,1.77
2018-12-11T05:20:43.354Z,1.50
2018-12-11T05:23:11.964Z,2.40
2018-12-11T05:25:40.623Z,2.50
2018-12-11T05:28:09.307Z,2.63
2018-12-11T05:30:37.905Z,1.80
2018-12-11T05:33:06.561Z,1.90
2018-12-11T05:35:35.262Z,1.10
2018-12-11T05:38:03.896Z,1.10
2018-12-11T05:40:32.518Z,0.90
2018-12-11T05:43:01.107Z,1.20
2018-12-11T05:45:29.732Z,1.27
2018-12-11T05:47:58.459Z,2.33
2018-12-11T05:50:27.929Z,1.60
2018-12-11T05:52:56.629Z,1.57
2018-12-11T05:55:25.219Z,1.70
2018-12-11T05:57:53.877Z,1.47
2018-12-11T06:00:22.466Z,1.43
2018-12-11T06:02:50.992Z,1.63
2018-12-11T06:05:19.565Z,1.70
2018-12-11T06:07:48.187Z,1.50
2018-12-11T06:10:16.801Z,3.30
2018-12-11T06:12:45.385Z,2.10
2018-12-11T06:15:13.982Z,1.43
2018-12-11T06:17:42.618Z,1.87
2018-12-11T06:20:12.190Z,1.67
2018-12-11T06:22:40.788Z,1.53
2018-12-11T06:25:09.421Z,1.97
2018-12-11T06:28:08.845Z,1.30
2018-12-11T06:30:37.443Z,1.70
2018-12-11T06:33:06.029Z,1.10
2018-12-11T06:35:34.679Z,1.60
2018-12-11T06:38:03.289Z,1.40
2018-12-11T06:40:31.932Z,1.37
2018-12-11T06:43:00.626Z,1.77
2018-12-11T06:45:29.224Z,1.87
2018-12-11T06:47:58.367Z,1.60
2018-12-11T06:50:26.963Z,1.70
2018-12-11T06:52:56.667Z,1.67
2018-12-11T06:55:29.345Z,1.60
2018-12-11T06:57:57.951Z,2.47
2018-12-11T07:00:26.565Z,1.90
2018-12-11T07:02:55.314Z,1.90
2018-12-11T07:05:23.920Z,2.00
2018-12-11T07:07:52.460Z,2.57
2018-12-11T07:10:21.047Z,2.50
2018-12-11T07:12:49.760Z,2.27
2018-12-11T07:15:18.515Z,2.10
2018-12-11T07:17:47.199Z,2.20
2018-12-11T07:20:15.809Z,2.40
2018-12-11T07:22:44.426Z,2.23
2018-12-11T07:25:13.091Z,2.63
2018-12-11T07:27:41.695Z,2.73
2018-12-11T07:30:10.285Z,2.57
2018-12-11T07:32:38.911Z,2.10
2018-12-11T07:35:07.526Z,1.80
2018-12-11T07:37:36.222Z,3.30
2018-12-11T07:40:05.039Z,2.23
2018-12-11T07:42:33.713Z,2.30
2018-12-11T07:45:02.365Z,2.53
2018-12-11T07:47:30.947Z,2.07
2018-12-11T07:49:59.699Z,1.93
2018-12-11T07:52:28.342Z,2.13
2018-12-11T07:54:57.550Z,1.97
2018-12-11T07:57:26.128Z,3.17
2018-12-11T07:59:54.706Z,3.17
2018-12-11T08:02:23.333Z,3.90
2018-12-11T08:04:51.945Z,2.50
2018-12-11T08:07:20.593Z,2.70
2018-12-11T08:09:49.299Z,3.37
2018-12-11T08:12:17.949Z,2.83
2018-12-11T08:14:46.600Z,2.10
2018-12-11T08:17:15.152Z,3.07
2018-12-11T08:19:43.813Z,1.70
2018-12-11T08:22:12.384Z,1.77
2018-12-11T08:24:42.025Z,1.70
2018-12-11T08:27:10.669Z,2.93
2018-12-11T08:29:39.297Z,2.10
2018-12-11T08:32:07.937Z,2.70
2018-12-11T08:34:36.622Z,1.70
2018-12-11T08:37:05.258Z,2.83
2018-12-11T08:39:33.896Z,3.50
2018-12-11T08:42:02.578Z,3.27
2018-12-11T08:44:31.826Z,2.90
2018-12-11T08:47:00.468Z,3.47
2018-12-11T08:49:29.108Z,2.83
2018-12-11T08:51:57.717Z,2.43
2018-12-11T08:54:26.367Z,1.93
2018-12-11T08:56:55.777Z,3.57
2018-12-11T08:59:24.373Z,2.40
2018-12-11T09:01:53.091Z,2.00
2018-12-11T09:04:21.770Z,1.80
2018-12-11T09:06:50.550Z,2.00
2018-12-11T09:09:19.210Z,2.60
2018-12-11T09:11:48.506Z,2.50
2018-12-11T09:14:17.198Z,2.07
2018-12-11T09:16:45.820Z,2.50
2018-12-11T09:19:15.251Z,2.33
2018-12-11T09:21:43.903Z,2.80
2018-12-11T09:24:12.581Z,2.67
2018-12-11T09:26:41.257Z,4.33
2018-12-11T09:29:09.892Z,2.73
2018-12-11T09:31:38.722Z,3.10
2018-12-11T09:34:07.284Z,3.73
2018-12-11T09:36:35.992Z,14.30
2018-12-11T09:39:07.422Z,5.70
2018-12-11T09:41:36.175Z,5.50
2018-12-11T09:44:04.926Z,13.97
2018-12-11T09:46:33.541Z,12.63
2018-12-11T09:49:02.139Z,25.63
2018-12-11T09:51:30.769Z,17.57
2018-12-11T09:54:00.522Z,6.50
2018-12-11T09:56:29.188Z,3.80
2018-12-11T09:58:58.135Z,3.97
2018-12-11T10:01:26.880Z,3.43
2018-12-11T10:03:55.796Z,2.50
2018-12-11T10:06:24.543Z,2.87
2018-12-11T10:08:57.363Z,2.30
2018-12-11T10:11:26.028Z,6.17
2018-12-11T10:13:54.713Z,2.20
2018-12-11T10:16:23.320Z,1.87
2018-12-11T10:18:51.971Z,1.70
2018-12-11T10:21:20.639Z,2.30
2018-12-11T10:23:49.271Z,3.17
2018-12-11T10:26:17.865Z,1.70
2018-12-11T10:28:46.614Z,1.97
2018-12-11T10:31:15.318Z,1.80
2018-12-11T10:33:44.018Z,1.87
2018-12-11T10:36:12.597Z,2.00
2018-12-11T10:38:42.005Z,2.80
2018-12-11T10:41:10.615Z,2.97
2018-12-11T10:43:39.322Z,19.00
2018-12-11T10:46:08.023Z,3.83
2018-12-11T10:48:36.712Z,5.10
2018-12-11T10:51:05.358Z,8.90
2018-12-11T10:53:34.009Z,8.67
2018-12-11T10:56:03.751Z,6.07
2018-12-11T10:58:32.495Z,1.97
2018-12-11T11:01:06.520Z,1.80
2018-12-11T11:03:36.357Z,1.60
2018-12-11T11:06:05.056Z,2.27
2018-12-11T11:08:33.683Z,2.93
2018-12-11T11:11:02.416Z,3.27
2018-12-11T11:13:31.592Z,2.17
2018-12-11T11:16:00.255Z,2.53
2018-12-11T11:18:28.928Z,2.57
2018-12-11T11:20:58.268Z,2.80
2018-12-11T11:23:26.933Z,2.70
2018-12-11T11:25:55.607Z,3.23
2018-12-11T11:28:24.393Z,2.63
2018-12-11T11:30:53.323Z,2.23
2018-12-11T11:33:22.054Z,3.20
2018-12-11T11:35:50.772Z,3.30
2018-12-11T11:38:19.424Z,2.57
2018-12-11T11:40:48.052Z,2.30
2018-12-11T11:43:16.811Z,2.43
2018-12-11T11:45:49.420Z,2.77
2018-12-11T11:48:18.242Z,2.57
2018-12-11T11:50:46.994Z,2.07
2018-12-11T11:53:15.799Z,2.73
2018-12-11T11:55:44.489Z,4.47
2018-12-11T11:58:13.152Z,3.77
2018-12-11T12:00:42.923Z,2.33
2018-12-11T12:03:11.647Z,1.87
2018-12-11T12:05:40.443Z,2.27
2018-12-11T12:08:09.434Z,2.03
2018-12-11T12:10:38.250Z,2.53
2018-12-11T12:13:07.056Z,1.90
2018-12-11T12:15:35.866Z,1.40
2018-12-11T12:18:04.858Z,1.93
2018-12-11T12:20:33.614Z,1.70
2018-12-11T12:23:02.313Z,1.67
2018-12-11T12:25:30.965Z,2.13
2018-12-11T12:27:59.839Z,2.07
2018-12-11T12:30:29.239Z,2.23
2018-12-11T12:32:58.131Z,1.60
2018-12-11T12:35:26.958Z,1.93
2018-12-11T12:37:55.823Z,1.33
2018-12-11T12:40:24.620Z,1.23
2018-12-11T12:42:54.019Z,2.07
2018-12-11T12:45:23.734Z,2.03
2018-12-11T12:47:52.507Z,1.03
2018-12-11T12:50:21.232Z,1.50
2018-12-11T12:52:50.115Z,1.70
2018-12-11T12:55:18.883Z,1.60
2018-12-11T12:57:48.495Z,1.70
2018-12-11T13:00:17.191Z,3.20
2018-12-11T13:02:49.904Z,2.73
2018-12-11T13:05:18.160Z,1.87
2018-12-11T13:07:46.942Z,5.60
2018-12-11T13:10:16.556Z,3.20
2018-12-11T13:12:45.348Z,3.10
2018-12-11T13:15:14.150Z,1.90
2018-12-11T13:17:43.123Z,2.30
2018-12-11T13:20:12.041Z,1.70
2018-12-11T13:22:40.716Z,2.20
2018-12-11T13:25:09.829Z,2.37
2018-12-11T13:27:38.672Z,2.40
2018-12-11T13:35:34.240Z,1.83
2018-12-11T13:38:02.956Z,3.90
2018-12-11T13:40:32.196Z,3.63
2018-12-11T13:43:01.127Z,1.60
2018-12-11T13:45:29.794Z,1.50
2018-12-11T13:47:58.594Z,1.73
2018-12-11T13:50:28.298Z,1.30
2018-12-11T13:52:57.985Z,1.67
2018-12-11T13:55:26.807Z,1.63
2018-12-11T13:57:56.105Z,1.60
2018-12-11T14:00:24.848Z,1.63
2018-12-11T14:02:54.116Z,2.90
2018-12-11T14:05:22.930Z,1.50
2018-12-11T14:07:51.764Z,2.07
2018-12-11T14:10:20.658Z,1.77
2018-12-11T14:12:49.269Z,2.13
2018-12-11T14:15:18.084Z,2.00
2018-12-11T14:17:46.851Z,1.90
2018-12-11T14:20:15.699Z,2.00
2018-12-11T14:22:44.841Z,1.60
2018-12-11T14:25:13.659Z,1.87
2018-12-11T14:27:43.360Z,2.40
2018-12-11T14:30:12.260Z,2.07
2018-12-11T14:32:41.120Z,1.60
2018-12-11T14:35:13.652Z,1.60
2018-12-11T14:37:50.806Z,8.57
2018-12-11T14:40:20.213Z,12.37
2018-12-11T14:42:55.854Z,5.37
2018-12-11T14:45:25.766Z,2.53
2018-12-11T14:47:55.694Z,4.17
2018-12-11T14:50:24.612Z,2.90
2018-12-11T14:52:53.411Z,2.33
2018-12-11T14:55:22.256Z,2.10
2018-12-11T14:57:50.941Z,2.27
2018-12-11T15:00:20.588Z,3.30
2018-12-11T15:02:49.802Z,4.23
2018-12-11T15:05:19.483Z,3.97
2018-12-11T15:07:49.519Z,3.37
2018-12-11T15:10:18.617Z,3.40
2018-12-11T15:12:47.468Z,3.50
2018-12-11T15:15:16.330Z,2.43
2018-12-11T15:17:45.058Z,2.10
2018-12-11T15:20:13.890Z,2.57
2018-12-11T15:22:44.909Z,1.97
2018-12-11T15:25:13.715Z,2.30
2018-12-11T15:27:42.578Z,1.50
2018-12-11T15:30:12.373Z,1.83
2018-12-11T15:32:41.135Z,2.03
2018-12-11T15:35:09.834Z,2.40
2018-12-11T15:37:38.505Z,2.37
2018-12-11T15:40:11.744Z,1.70
2018-12-11T15:42:40.604Z,1.70
2018-12-11T15:45:10.297Z,2.73
2018-12-11T15:47:39.196Z,2.27
2018-12-11T15:50:08.162Z,2.20
2018-12-11T15:52:36.744Z,2.03
2018-12-11T15:55:06.507Z,2.47
2018-12-11T15:57:35.168Z,3.10
2018-12-11T16:00:05.804Z,2.60
2018-12-11T16:02:34.488Z,2.70
2018-12-11T16:05:03.752Z,2.30
2018-12-11T16:07:32.443Z,2.70
2018-12-11T16:10:01.209Z,3.80
2018-12-11T16:12:29.873Z,2.87
2018-12-11T16:14:58.518Z,3.87
2018-12-11T16:17:27.157Z,2.60
2018-12-11T16:19:55.964Z,2.17
2018-12-11T16:22:25.100Z,2.83
2018-12-11T16:24:54.551Z,2.23
2018-12-11T16:27:23.618Z,3.53
2018-12-11T16:29:52.387Z,3.00
2018-12-11T16:32:21.302Z,3.73
2018-12-11T16:34:50.265Z,3.70
2018-12-11T16:37:20.247Z,3.30
2018-12-11T16:39:49.987Z,3.50
2018-12-11T16:42:19.083Z,3.10
2018-12-11T16:44:48.311Z,3.63
2018-12-11T16:47:23.843Z,6.07
2018-12-11T16:49:59.079Z,4.93
2018-12-11T16:52:28.002Z,4.20
2018-12-11T16:54:56.621Z,3.13
2018-12-11T16:57:25.443Z,2.43
2018-12-11T16:59:54.266Z,3.33
2018-12-11T17:02:23.037Z,2.80
2018-12-11T17:04:51.720Z,2.43
2018-12-11T17:07:20.828Z,2.10
2018-12-11T17:09:49.906Z,2.13
2018-12-11T17:12:19.716Z,1.77
2018-12-11T17:14:48.513Z,4.40
2018-12-11T17:17:17.852Z,2.50
2018-12-11T17:19:46.580Z,37.60
2018-12-11T17:22:15.375Z,8.50
2018-12-11T17:24:45.305Z,2.20
2018-12-11T17:27:14.636Z,2.03
2018-12-11T17:29:43.299Z,2.13
2018-12-11T17:32:12.093Z,1.97
2018-12-11T17:34:41.009Z,2.33
2018-12-11T17:37:09.942Z,2.07
2018-12-11T17:39:40.251Z,2.23
2018-12-11T17:42:12.487Z,2.00
2018-12-11T17:44:43.629Z,2.40
2018-12-11T17:47:12.513Z,1.97
2018-12-11T17:49:42.403Z,2.80
2018-12-11T17:52:13.599Z,2.10
2018-12-11T17:54:42.463Z,2.77
2018-12-11T17:57:11.163Z,2.80
2018-12-11T17:59:41.191Z,1.93
2018-12-11T18:02:13.513Z,3.97
2018-12-11T18:04:42.277Z,4.60
2018-12-11T18:07:11.126Z,16.87
2018-12-11T18:09:41.135Z,8.97
2018-12-11T18:12:17.898Z,12.23
2018-12-11T18:14:47.899Z,7.00
2018-12-11T18:17:22.579Z,4.23
2018-12-11T18:19:51.545Z,3.93
2018-12-11T18:22:21.556Z,3.73
2018-12-11T18:24:51.062Z,3.43
2018-12-11T18:27:22.089Z,3.10
2018-12-11T18:29:54.053Z,3.47
2018-12-11T18:32:25.258Z,3.73
2018-12-11T18:34:55.111Z,4.00
2018-12-11T18:37:24.514Z,6.20
2018-12-11T18:39:54.018Z,7.77
2018-12-11T18:42:25.050Z,4.23
2018-12-11T18:45:03.048Z,7.37
2018-12-11T18:47:28.477Z,6.10
2018-12-11T18:49:58.866Z,6.17
2018-12-11T18:52:29.003Z,6.27
2018-12-11T18:54:58.645Z,4.73
2018-12-11T18:57:29.643Z,6.40
2018-12-11T19:00:01.525Z,6.57
2018-12-11T19:02:30.529Z,12.63
2018-12-11T19:04:59.325Z,8.27
2018-12-11T19:07:28.211Z,9.03
2018-12-11T19:09:57.102Z,7.50
2018-12-11T19:12:25.994Z,7.97
2018-12-11T19:14:54.840Z,7.53
2018-12-11T19:17:23.980Z,6.40
2018-12-11T19:19:52.636Z,6.67
2018-12-11T19:22:21.342Z,6.13
2018-12-11T19:24:52.842Z,6.30
2018-12-11T19:27:21.644Z,5.57
2018-12-11T19:29:50.459Z,5.63
2018-12-11T19:32:19.432Z,5.57
2018-12-11T19:34:48.185Z,6.37
2018-12-11T19:37:17.154Z,5.03
2018-12-11T19:39:46.790Z,4.90
2018-12-11T19:42:15.540Z,5.07
2018-12-11T19:44:45.203Z,5.00
2018-12-11T19:47:13.859Z,6.40
2018-12-11T19:49:43.339Z,4.87
2018-12-11T19:52:12.089Z,5.33
2018-12-11T19:54:40.839Z,5.47
2018-12-11T19:57:09.659Z,5.10
2018-12-11T19:59:38.439Z,5.07
2018-12-11T20:02:07.890Z,5.07
2018-12-11T20:04:36.699Z,5.47
2018-12-11T20:07:07.287Z,5.70
2018-12-11T20:09:39.062Z,5.53
2018-12-11T20:12:07.948Z,4.97
2018-12-11T20:14:36.845Z,5.07
2018-12-11T20:17:05.795Z,5.20
2018-12-11T20:19:34.643Z,6.33
2018-12-11T20:22:03.423Z,6.03
2018-12-11T20:24:32.370Z,5.93
2018-12-11T20:27:01.316Z,5.97
2018-12-11T20:29:30.270Z,4.90
2018-12-11T20:31:59.088Z,4.70
2018-12-11T20:34:28.032Z,6.00
2018-12-11T20:36:57.067Z,10.08
2018-12-11T20:39:25.885Z,6.87
2018-12-11T20:41:54.580Z,7.63
2018-12-11T20:44:23.286Z,7.70
2018-12-11T20:46:52.052Z,5.40
2018-12-11T20:49:20.762Z,5.80
2018-12-11T20:51:49.517Z,6.47
2018-12-11T20:54:18.209Z,5.50
2018-12-11T20:56:47.023Z,5.30
2018-12-11T20:59:15.967Z,5.70
2018-12-11T21:01:44.755Z,5.03
2018-12-11T21:04:13.483Z,6.20
2018-12-11T21:06:42.112Z,5.37
2018-12-11T21:09:15.523Z,5.77
2018-12-11T21:11:44.180Z,6.43
2018-12-11T21:14:12.994Z,6.60
2018-12-11T21:16:41.879Z,6.90
2018-12-11T21:19:11.066Z,6.77
2018-12-11T21:21:39.800Z,7.13
2018-12-11T21:24:08.899Z,6.93
2018-12-11T21:26:37.627Z,7.87
2018-12-11T21:29:07.441Z,6.80
2018-12-11T21:31:36.895Z,7.43
2018-12-11T21:34:06.311Z,7.20
2018-12-11T21:36:35.027Z,7.23
2018-12-11T21:39:05.497Z,7.80
2018-12-11T21:41:34.224Z,7.87
2018-12-11T21:44:03.013Z,7.73
2018-12-11T21:46:31.768Z,7.87
2018-12-11T21:49:00.493Z,9.03
2018-12-11T21:51:30.026Z,14.67
2018-12-11T21:53:58.848Z,17.97
2018-12-11T21:56:35.465Z,16.40
2018-12-11T21:59:06.135Z,13.97
2018-12-11T22:01:35.511Z,12.10
2018-12-11T22:04:04.441Z,16.90
2018-12-11T22:06:33.335Z,14.23
2018-12-11T22:09:04.437Z,14.77
2018-12-11T22:11:33.310Z,13.40
2018-12-11T22:14:02.692Z,13.53
2018-12-11T22:16:31.370Z,12.80
2018-12-11T22:19:00.150Z,12.83
2018-12-11T22:21:28.831Z,13.50
2018-12-11T22:23:57.572Z,12.77
2018-12-11T22:26:26.264Z,12.63
2018-12-11T22:28:55.020Z,12.10
2018-12-11T22:31:27.321Z,12.03
2018-12-11T22:33:56.350Z,11.60
2018-12-11T22:36:25.817Z,12.57
2018-12-11T22:38:54.576Z,13.17
2018-12-11T22:41:23.347Z,11.97
2018-12-11T22:43:52.085Z,12.37
2018-12-11T22:46:21.005Z,11.93
2018-12-11T22:48:57.763Z,11.30
2018-12-11T22:51:26.661Z,11.53
2018-12-11T22:53:55.328Z,11.83
2018-12-11T22:56:24.047Z,11.47
2018-12-11T22:58:52.696Z,11.17
2018-12-11T23:01:21.622Z,12.43
2018-12-11T23:03:50.330Z,10.27
2018-12-11T23:06:19.119Z,11.20
2018-12-11T23:08:47.992Z,10.80
2018-12-11T23:11:16.989Z,10.77
2018-12-11T23:13:45.627Z,11.60
2018-12-11T23:16:14.602Z,10.80
2018-12-11T23:18:43.398Z,10.27
2018-12-11T23:21:12.207Z,10.60
2018-12-11T23:23:42.058Z,10.00
2018-12-11T23:26:10.801Z,11.67
2018-12-11T23:28:39.690Z,10.70
2018-12-11T23:31:08.306Z,10.63
2018-12-11T23:33:37.033Z,11.37
2018-12-11T23:36:06.575Z,10.40
2018-12-11T23:38:35.271Z,10.87
2018-12-11T23:41:04.053Z,11.23
2018-12-11T23:43:32.767Z,11.60
2018-12-11T23:46:01.495Z,11.93
2018-12-11T23:48:30.216Z,12.73
2018-12-11T23:50:59.624Z,12.87
2018-12-11T23:53:28.358Z,12.07
2018-12-11T23:55:57.076Z,12.57
2018-12-11T23:58:25.830Z,13.00
